Latest Weather Observations for Scotts Peak

IDT60801

Issued at 5:11 am EDT Wednesday 13 November 2019 (issued every 10 minutes, with the page automatically refreshed every 10 minutes)

About weather observations | Map of weather stations | Latest weather observations for TAS | Other Formats
Station Details ID: 097083 Name: SCOTTS PEAK DAM Lat: -43.04 Lon: 146.27 Height: 408.0 m
Data from the previous 72 hours. | See also: Recent months at Scotts Peak
Date/Time
EDT
Temp
°C
App
Temp
°C
Dew
Point
°C
Rel
Hum
%
Delta-T
°C
Wind Press
QNH
hPa
Press
MSL
hPa
Rain since
9am
mm
Dir  Spd
km/h
Gust
km/h
Spd
kts
Gust
kts
13/05:00am 4.3 -3.4 2.5 88 0.7 W 32 63 17 34 - - 9.2
13/04:59am 4.0 -3.2 2.8 92 0.5 W 30 54 16 29 - - 9.2
13/04:50am 4.2 -5.2 2.6 89 0.7 WNW 41 61 22 33 - - 9.2
13/04:36am 4.3 -6.1 2.3 87 0.8 WNW 46 70 25 38 - - 9.2
13/04:30am 4.3 -6.1 2.2 86 0.9 WNW 46 63 25 34 - - 9.2
13/04:18am 4.2 -5.8 2.1 86 0.9 WNW 44 65 24 35 - - 9.2
13/04:00am 3.9 -6.2 1.8 86 0.8 WNW 44 59 24 32 - - 9.2
13/03:42am 4.1 -6.3 1.8 85 0.9 WNW 46 67 25 36 - - 9.2
13/03:30am 3.9 -6.5 1.9 87 0.8 WNW 46 61 25 33 - - 9.2
13/03:00am 2.9 -6.6 2.0 94 0.4 WNW 41 54 22 29 - - 9.2
13/02:40am 2.9 -5.4 2.3 96 0.2 W 35 50 19 27 - - 9.0
13/02:32am 3.4 -6.6 1.9 90 0.6 WNW 44 61 24 33 - - 8.4
13/02:30am 3.6 -7.3 1.6 87 0.8 WNW 48 61 26 33 - - 8.4
13/02:00am 2.8 -9.5 1.9 94 0.4 WNW 56 76 30 41 - - 8.4
13/01:43am 3.9 -7.3 1.9 87 0.8 WNW 50 82 27 44 - - 8.0
13/01:30am 3.9 -5.6 1.6 85 0.9 WNW 41 59 22 32 - - 8.0
13/01:06am 4.2 -4.2 1.7 84 1.0 W 35 57 19 31 - - 8.0
13/01:02am 3.9 -5.2 2.1 88 0.7 W 39 56 21 30 - - 8.0
13/01:00am 3.7 -5.4 2.1 89 0.7 W 39 59 21 32 - - 8.0
13/12:59am 3.7 -6.1 2.2 90 0.6 W 43 59 23 32 - - 8.0
13/12:30am 4.0 -5.7 2.7 91 0.5 WNW 43 63 23 34 - - 8.0
13/12:22am 4.1 -7.7 2.5 89 0.7 WNW 54 70 29 38 - - 8.0
13/12:17am 3.8 -7.3 2.5 91 0.5 WNW 50 70 27 38 - - 8.0
13/12:07am 4.1 -4.6 2.1 87 0.8 WNW 37 56 20 30 - - 8.0
13/12:00am 3.8 -5.6 2.5 91 0.5 WNW 41 56 22 30 - - 8.0
 
Date/Time
EDT
Temp
°C
App
Temp
°C
Dew
Point
°C
Rel
Hum
%
Delta-T
°C
Wind Press
QNH
hPa
Press
MSL
hPa
Rain since
9am
mm
Dir  Spd
km/h
Gust
km/h
Spd
kts
Gust
kts
12/11:30pm 3.4 -3.3 3.4 100 0.0 WNW 28 43 15 23 - - 8.0
12/11:21pm 3.2 -6.1 3.1 99 0.0 W 41 59 22 32 - - 8.0
12/11:18pm 3.3 -7.3 3.0 98 0.1 WNW 48 59 26 32 - - 8.0
12/11:10pm 3.8 -5.0 3.8 100 0.0 NW 39 59 21 32 - - 7.2
12/11:00pm 3.8 -4.8 2.5 91 0.5 WNW 37 50 20 27 - - 7.2
12/10:30pm 4.4 -3.4 2.8 89 0.7 WNW 33 44 18 24 - - 6.6
12/10:00pm 4.3 -4.3 2.7 89 0.7 WNW 37 50 20 27 - - 6.6
12/09:31pm 3.9 -5.4 3.2 95 0.3 WNW 41 59 22 32 - - 6.6
12/09:30pm 4.0 -5.7 3.1 94 0.4 WNW 43 59 23 32 - - 6.6
12/09:00pm 3.5 -4.7 2.9 96 0.2 WNW 35 46 19 25 - - 6.4
12/08:46pm 3.5 -6.4 2.9 96 0.2 WNW 44 65 24 35 - - 6.2
12/08:30pm 3.7 -6.6 2.7 93 0.4 WNW 46 61 25 33 - - 6.0
12/08:08pm 4.2 -4.4 2.7 90 0.6 WNW 37 56 20 30 - - 6.0
12/08:00pm 4.1 -4.6 2.0 86 0.9 WNW 37 54 20 29 - - 6.0
12/07:33pm 4.2 -5.6 3.3 94 0.4 WNW 44 63 24 34 - - 5.6
12/07:30pm 4.4 -5.3 2.8 89 0.7 WNW 43 56 23 30 - - 5.6
12/07:00pm 4.7 -4.5 3.5 92 0.5 WNW 41 57 22 31 - - 5.4
12/06:30pm 4.5 -4.4 3.2 91 0.5 WNW 39 54 21 29 - - 5.4
12/06:00pm 5.1 -3.3 3.6 90 0.6 WNW 37 56 20 30 - - 5.2
12/05:38pm 4.7 -4.9 3.4 91 0.6 WNW 43 61 23 33 - - 5.2
12/05:30pm 4.9 -5.2 3.6 91 0.6 WNW 46 61 25 33 - - 5.2
12/05:01pm 3.5 -7.0 3.4 99 0.0 WNW 48 67 26 36 - - 4.8
12/05:00pm 3.5 -6.7 3.4 99 0.0 WNW 46 61 25 33 - - 4.8
12/04:35pm 5.1 -2.8 4.5 96 0.3 WNW 35 57 19 31 - - 3.6
12/04:30pm 5.2 -3.1 4.2 93 0.4 WNW 37 46 20 25 - - 3.6
12/04:16pm 4.1 -5.7 3.5 96 0.3 WNW 44 74 24 40 - - 3.6
12/04:13pm 4.1 -4.7 3.7 97 0.2 WNW 39 74 21 40 - - 3.6
12/04:12pm 4.5 -3.8 4.1 97 0.2 WNW 37 74 20 40 - - 3.4
12/04:06pm 5.5 -2.6 5.1 97 0.2 NW 37 56 20 30 - - 3.0
12/04:00pm 5.8 -3.7 4.9 94 0.4 NW 44 56 24 30 - - 2.8
12/03:37pm 5.4 -2.9 4.1 91 0.6 WNW 37 57 20 31 - - 2.6
12/03:30pm 6.4 -1.3 5.4 93 0.5 WNW 35 50 19 27 - - 2.2
12/03:02pm 4.8 -4.9 3.8 93 0.4 WNW 44 76 24 41 - - 2.2
12/03:00pm 5.1 -3.9 4.5 96 0.3 WNW 41 57 22 31 - - 2.2
12/02:30pm 6.5 -3.1 6.2 98 0.1 WNW 46 78 25 42 - - 2.0
12/02:00pm 8.2 -2.3 5.5 83 1.2 WNW 50 69 27 37 - - 1.6
12/01:54pm 7.9 -1.7 4.3 78 1.6 WNW 44 63 24 34 - - 1.6
12/01:43pm 6.2 -6.0 5.5 95 0.3 WNW 59 89 32 48 - - 1.6
12/01:33pm 6.4 -4.1 3.7 83 1.2 NW 48 96 26 52 - - 1.4
12/01:31pm 7.3 -1.5 5.4 88 0.9 NW 41 69 22 37 - - 1.4
12/01:30pm 7.4 -1.4 5.4 87 0.9 NW 41 52 22 28 - - 1.4
12/01:00pm 7.9 -2.5 5.9 87 0.9 WNW 50 63 27 34 - - 1.4
12/12:43pm 5.0 -7.1 4.1 94 0.4 WNW 57 76 31 41 - - 1.4
12/12:41pm 4.8 -7.5 3.3 90 0.6 WNW 57 76 31 41 - - 1.4
12/12:30pm 6.3 -3.5 3.5 82 1.2 WNW 44 70 24 38 - - 1.4
12/12:00pm 6.9 -2.5 4.4 84 1.1 NW 43 63 23 34 - - 1.4
12/11:43am 8.0 -2.0 8.0 100 0.0 NW 50 69 27 37 - - 1.4
12/11:30am 6.3 -4.9 4.0 85 1.0 WNW 52 67 28 36 - - 1.4
12/11:00am 5.3 -5.6 5.3 100 0.0 NW 52 80 28 43 - - 1.2
12/10:30am 4.2 -6.2 4.1 99 0.0 WNW 48 72 26 39 - - 1.2
12/10:17am 5.6 -3.3 4.9 95 0.3 NW 41 63 22 34 - - 0.2
12/10:00am 5.7 -3.3 4.7 93 0.4 WNW 41 54 22 29 - - 0.2
12/09:30am 5.1 -4.4 5.0 99 0.0 WNW 44 65 24 35 - - 0.2
12/09:22am 4.9 -3.7 4.9 100 0.0 NW 39 57 21 31 - - 0.0
12/09:00am 6.0 -2.7 6.0 100 0.0 NW 41 52 22 28 - - 16.4
12/08:30am 3.8 -5.7 3.8 100 0.0 WNW 43 56 23 30 - - 16.2
12/08:00am 5.2 -2.5 5.2 100 0.0 NW 35 46 19 25 - - 15.0
12/07:30am 4.4 -3.5 4.4 100 0.0 WNW 35 46 19 25 - - 15.0
12/07:00am 4.6 -3.6 4.6 100 0.0 NW 37 44 20 24 - - 14.4
12/06:30am 4.5 -4.9 4.5 100 0.0 NW 43 52 23 28 - - 13.6
12/06:00am 4.6 -2.7 4.6 100 0.0 NW 32 41 17 22 - - 13.6
12/05:30am 4.5 -1.7 4.5 100 0.0 WNW 26 35 14 19 - - 13.4
12/05:00am 4.3 -3.0 4.3 100 0.0 NW 32 41 17 22 - - 13.4
12/04:54am 4.3 -0.8 4.3 100 0.0 WNW 20 37 11 20 - - 13.4
12/04:30am 3.9 0.9 3.9 100 0.0 WNW 9 13 5 7 - - 13.2
12/04:00am 3.8 -1.2 3.8 100 0.0 NW 19 28 10 15 - - 13.2
12/03:30am 3.9 -3.7 3.9 100 0.0 NNW 33 41 18 22 - - 13.2
12/03:00am 4.1 -2.9 4.1 100 0.0 NW 30 35 16 19 - - 12.6
12/02:30am 4.3 -4.4 4.3 100 0.0 NW 39 48 21 26 - - 12.0
12/02:00am 4.6 -2.3 4.6 100 0.0 WNW 30 43 16 23 - - 11.4
12/01:30am 5.2 -1.2 5.2 100 0.0 W 28 35 15 19 - - 10.6
12/01:00am 5.6 -1.7 5.6 100 0.0 WNW 33 44 18 24 - - 9.4
12/12:30am 5.8 -0.9 5.8 100 0.0 WNW 30 37 16 20 - - 8.4
12/12:00am 5.9 -2.8 5.9 100 0.0 NW 41 50 22 27 - - 6.4
 
Date/Time
EDT
Temp
°C
App
Temp
°C
Dew
Point
°C
Rel
Hum
%
Delta-T
°C
Wind Press
QNH
hPa
Press
MSL
hPa
Rain since
9am
mm
Dir  Spd
km/h
Gust
km/h
Spd
kts
Gust
kts
11/11:30pm 5.6 -5.3 5.6 100 0.0 NW 52 63 28 34 - - 6.0
11/11:00pm 6.0 -4.4 6.0 100 0.0 NW 50 67 27 36 - - 5.4
11/10:32pm 7.1 0.3 7.1 100 0.0 WNW 32 50 17 27 - - 5.2
11/10:30pm 7.2 0.9 7.2 100 0.0 WNW 30 44 16 24 - - 5.2
11/10:00pm 8.0 2.2 8.0 100 0.0 WNW 28 39 15 21 - - 4.6
11/09:30pm 8.7 1.0 8.7 100 0.0 WNW 39 54 21 29 - - 4.0
11/09:26pm 9.0 1.4 9.0 100 0.0 WNW 39 50 21 27 - - 4.0
11/09:00pm 9.8 2.4 9.8 100 0.0 NW 39 57 21 31 - - 2.2
11/08:46pm 9.9 2.9 9.9 100 0.0 NNW 37 59 20 32 - - 1.8
11/08:30pm 9.8 1.1 9.8 100 0.0 NNW 46 70 25 38 - - 1.8
11/08:29pm 9.9 0.8 9.9 100 0.0 NNW 48 70 26 38 - - 1.8
11/08:00pm 10.1 -0.5 10.1 100 0.0 NNW 56 76 30 41 - - 1.4
11/07:34pm 10.1 0.3 10.1 100 0.0 NNW 52 70 28 38 - - 1.4
11/07:30pm 10.1 0.3 10.1 100 0.0 NNW 52 69 28 37 - - 1.4
11/07:00pm 10.1 -0.7 10.1 100 0.0 NNW 57 78 31 42 - - 1.2
11/06:30pm 10.4 1.1 10.4 100 0.0 NW 50 72 27 39 - - 1.0
11/06:00pm 10.2 1.6 10.2 100 0.0 NNW 46 76 25 41 - - 0.8
11/05:42pm 10.2 0.0 10.2 100 0.0 NNW 54 72 29 39 - - 0.8
11/05:30pm 10.3 0.9 10.3 100 0.0 NNW 50 67 27 36 - - 0.8
11/05:07pm 10.4 -1.0 10.4 100 0.0 NNW 61 80 33 43 - - 0.6
11/05:00pm 10.4 -1.4 10.4 100 0.0 NNW 63 80 34 43 - - 0.4
11/04:49pm 10.7 1.1 10.7 100 0.0 NNW 52 69 28 37 - - 0.2
11/04:45pm 10.8 0.8 10.8 100 0.0 NNW 54 70 29 38 - - 0.2
11/04:30pm 11.1 -1.2 9.9 92 0.6 NNW 65 83 35 45 - - 0.0
11/04:21pm 11.6 0.8 9.2 85 1.2 NNW 56 76 30 41 - - 0.0
11/04:10pm 12.4 1.6 9.1 80 1.7 NNW 56 74 30 40 - - 0.0
11/04:01pm 12.8 0.4 8.3 74 2.3 NNW 63 91 34 49 - - 0.0
11/04:00pm 12.7 0.2 7.8 72 2.5 NNW 63 91 34 49 - - 0.0
11/03:59pm 12.8 0.8 8.1 73 2.4 NNW 61 91 33 49 - - 0.0
11/03:31pm 12.7 1.3 7.4 70 2.6 NNW 57 76 31 41 - - 0.0
11/03:30pm 12.9 1.6 7.8 71 2.6 NNW 57 70 31 38 - - 0.0
11/03:01pm 14.3 2.2 7.6 64 3.4 NNW 61 83 33 45 - - 0.0
11/03:00pm 14.3 2.2 7.6 64 3.4 NNW 61 74 33 40 - - 0.0
11/02:30pm 15.5 4.2 7.3 58 4.1 NW 56 74 30 40 - - 0.0
11/02:29pm 15.4 4.1 7.2 58 4.1 NW 56 74 30 40 - - 0.0
11/02:00pm 17.2 4.6 7.3 52 5.1 NNW 63 76 34 41 - - 0.0
11/01:34pm 16.5 3.8 6.9 53 4.8 NNW 63 83 34 45 - - 0.0
11/01:30pm 16.8 4.1 6.9 52 5.0 NNW 63 80 34 43 - - 0.0
11/01:04pm 15.6 0.9 5.5 51 4.9 NNW 72 95 39 51 - - 0.0
11/01:00pm 15.8 1.6 6.0 52 4.8 NNW 70 83 38 45 - - 0.0
11/12:30pm 15.2 0.4 5.1 51 4.9 NNW 72 83 39 45 - - 0.0
11/12:00pm 13.7 -0.9 4.3 53 4.4 NNW 70 89 38 48 - - 0.0
11/11:30am 15.1 0.9 5.0 51 4.9 NNW 69 83 37 45 - - 0.0
11/11:18am 15.0 2.3 5.0 51 4.8 NNW 61 89 33 48 - - 0.0
11/11:01am 13.1 2.6 3.7 53 4.3 NNW 48 67 26 36 - - 0.0
11/11:00am 13.3 3.4 4.7 56 4.1 NNW 46 61 25 33 - - 0.0
11/10:30am 12.9 3.9 6.5 65 3.1 N 43 52 23 28 - - 0.0
11/10:00am 10.4 1.8 6.5 77 1.9 N 41 52 22 28 - - 0.0
11/09:30am 11.4 3.5 7.7 78 1.8 NNW 39 48 21 26 - - 0.0
11/09:00am 9.9 1.5 7.2 83 1.3 NNW 41 52 22 28 - - 2.0
11/08:47am 9.5 1.5 7.3 86 1.1 NNW 39 59 21 32 - - 2.0
11/08:30am 8.8 0.4 7.4 91 0.7 NNW 41 52 22 28 - - 2.0
11/08:00am 8.3 0.6 7.2 93 0.5 N 37 57 20 31 - - 2.0
11/07:58am 8.2 0.2 7.3 94 0.4 N 39 57 21 31 - - 2.0
11/07:30am 7.9 -0.5 7.5 97 0.2 NNW 41 48 22 26 - - 2.0
11/07:00am 7.4 -0.2 7.4 100 0.0 NNW 37 48 20 26 - - 2.0
11/06:30am 7.1 -1.9 7.1 100 0.0 NNW 44 56 24 30 - - 2.0
11/06:00am 7.2 -3.3 7.2 100 0.0 NNW 52 65 28 35 - - 1.8
11/05:56am 7.1 -2.7 7.1 100 0.0 NNW 48 65 26 35 - - 1.8
11/05:39am 7.0 1.0 7.0 100 0.0 NNW 28 41 15 22 - - 1.8
11/05:30am 6.8 3.2 6.8 100 0.0 NNW 15 19 8 10 - - 1.8
11/05:02am 7.1 -0.3 6.8 98 0.1 NW 35 44 19 24 - - 1.8
11/05:00am 7.1 -1.4 7.1 100 0.0 NNW 41 50 22 27 - - 1.8
11/04:30am 6.8 -1.0 6.8 100 0.0 NNW 37 50 20 27 - - 1.8
11/04:00am 6.7 -2.2 6.7 100 0.0 N 43 56 23 30 - - 1.8
11/03:30am 6.9 -2.0 6.9 100 0.0 NNW 43 54 23 29 - - 1.8
11/03:00am 7.0 -1.9 7.0 100 0.0 NNW 43 52 23 28 - - 1.8
11/02:30am 7.0 0.2 7.0 100 0.0 NNW 32 37 17 20 - - 1.8
11/02:00am 7.2 0.5 7.2 100 0.0 NNW 32 39 17 21 - - 1.8
11/01:30am 7.4 0.1 7.4 100 0.0 NNW 35 44 19 24 - - 1.6
11/01:00am 7.7 1.1 7.7 100 0.0 NNW 32 41 17 22 - - 1.6
11/12:30am 7.8 0.6 7.8 100 0.0 NNW 35 43 19 23 - - 0.8
11/12:00am 8.0 1.3 8.0 100 0.0 NNW 33 39 18 21 - - 0.8
 
Date/Time
EDT
Temp
°C
App
Temp
°C
Dew
Point
°C
Rel
Hum
%
Delta-T
°C
Wind Press
QNH
hPa
Press
MSL
hPa
Rain since
9am
mm
Dir  Spd
km/h
Gust
km/h
Spd
kts
Gust
kts
10/11:30pm 7.9 2.5 7.9 100 0.0 NNW 26 33 14 18 - - 0.8
10/11:00pm 7.9 3.6 7.9 100 0.0 NNW 20 26 11 14 - - 0.8
10/10:30pm 8.0 3.7 8.0 100 0.0 NNW 20 24 11 13 - - 0.8
10/10:00pm 8.0 3.0 8.0 100 0.0 NNW 24 32 13 17 - - 0.8
10/09:30pm 8.1 3.1 8.1 100 0.0 NW 24 32 13 17 - - 0.8
10/09:00pm 8.2 3.2 8.2 100 0.0 WNW 24 32 13 17 - - 0.8
10/08:30pm 8.3 3.4 8.3 100 0.0 NW 24 35 13 19 - - 0.8
10/08:00pm 8.3 2.6 8.3 100 0.0 WNW 28 35 15 19 - - 0.8
10/07:30pm 8.5 2.1 8.5 100 0.0 NW 32 37 17 20 - - 0.8
10/07:00pm 8.9 4.9 8.9 100 0.0 NW 20 28 11 15 - - 0.6
10/06:30pm 9.3 3.6 8.5 95 0.4 WNW 28 37 15 20 - - 0.6
10/06:00pm 9.6 3.1 8.2 91 0.7 W 32 41 17 22 - - 0.6
10/05:30pm 10.3 3.8 8.2 87 1.0 WNW 32 44 17 24 - - 0.6
10/05:00pm 11.0 4.4 7.9 81 1.5 WNW 32 46 17 25 - - 0.6
10/04:30pm 10.4 3.5 8.8 90 0.8 WNW 35 48 19 26 - - 0.6
10/04:00pm 10.3 3.5 9.2 93 0.6 WNW 35 46 19 25 - - 0.6
10/03:30pm 10.8 4.4 8.6 86 1.1 WNW 32 41 17 22 - - 0.6
10/03:00pm 10.3 2.5 8.4 88 0.9 WNW 39 48 21 26 - - 0.6
10/02:30pm 9.8 3.7 8.2 90 0.8 WNW 30 39 16 21 - - 0.6
10/02:00pm 10.3 5.4 10.0 98 0.2 NW 26 33 14 18 - - 0.6
10/01:30pm 9.7 2.9 9.4 98 0.2 NW 35 43 19 23 - - 0.6
10/01:00pm 9.7 7.1 9.4 98 0.2 WNW 13 30 7 16 - - 0.6
10/12:30pm 9.3 7.1 9.3 100 0.0 NW 11 17 6 9 - - 0.6
10/12:00pm 9.0 5.7 7.9 93 0.5 WNW 15 26 8 14 - - 0.0
10/11:30am 8.9 3.1 6.2 83 1.3 WNW 26 41 14 22 - - 0.0
10/11:00am 8.9 4.0 5.1 77 1.7 W 20 32 11 17 - - 0.0
10/10:30am 9.1 4.7 6.4 83 1.3 W 19 32 10 17 - - 0.0
10/10:00am 8.9 2.4 4.7 75 1.9 WNW 28 43 15 23 - - 0.0
10/09:30am 9.0 3.3 4.8 75 1.9 WSW 24 44 13 24 - - 0.0
10/09:20am 8.7 2.1 4.3 74 2.0 W 28 50 15 27 - - 0.0
10/09:00am 8.1 1.8 5.9 86 1.0 W 28 46 15 25 - - 17.4
10/08:38am 7.9 1.7 6.2 89 0.8 WNW 28 50 15 27 - - 17.4
10/08:30am 7.6 0.5 5.6 87 0.9 WNW 32 43 17 23 - - 17.4
10/08:01am 7.5 1.3 6.0 90 0.7 WNW 28 46 15 25 - - 17.4
10/08:00am 7.5 0.8 5.6 88 0.9 WNW 30 46 16 25 - - 17.4
10/07:30am 7.0 0.4 6.1 94 0.4 W 30 43 16 23 - - 17.4
10/07:00am 6.9 -0.6 6.5 97 0.2 WNW 35 54 19 29 - - 17.4
10/06:30am 6.5 -0.4 6.5 100 0.0 WNW 32 43 17 23 - - 17.0
10/06:00am 6.2 -0.4 6.2 100 0.0 WNW 30 43 16 23 - - 16.8
10/05:30am 6.4 -0.3 5.7 95 0.3 WNW 30 46 16 25 - - 16.6

Other formats

Comma delimited format used in spreadsheet applications
http://www.bom.gov.au/fwo/IDT60801/IDT60801.95958.axf

JavaScript Object Notation format (JSON) in row-major order
http://www.bom.gov.au/fwo/IDT60801/IDT60801.95958.json

Data quality

Most of these data are generated automatically and are frequently updated. Quality checks on data are not normally performed. It is possible for incorrect values to appear. Refer to information at About Latest Weather Observations and please check the disclaimer before using these data.